Time;durP1;ratioP1;P1;durP2;ratioP2;P2;SDS_P1;SDS_P2;PMS_P1;PMS_P2;Temp;Humidity;BMP_temperature;BMP_pressure;BME280_temperature;BME280_humidity;BME280_pressure;Samples;Min_cycle;Max_cycle;Signal;HPM_P1;HPM_P2
2021/12/20 00:02:06;;;;;;;27.60;14.05;;;4.50;99.90;;;;;;5022863;28;20440;-86
2021/12/20 00:04:31;;;;;;;26.83;13.43;;;4.50;99.90;;;;;;5000012;28;20881;-86
2021/12/20 00:06:57;;;;;;;24.73;12.90;;;4.50;99.90;;;;;;5005471;28;20216;-86
2021/12/20 00:09:23;;;;;;;22.13;11.93;;;;;;;;;;5028183;28;20173;-89
2021/12/20 00:11:49;;;;;;;30.30;15.20;;;;;;;;;;5017901;28;20182;-89
2021/12/20 00:14:14;;;;;;;34.08;15.93;;;4.20;99.90;;;;;;5024686;28;20592;-89
2021/12/20 00:16:40;;;;;;;22.70;13.20;;;;;;;;;;5023721;28;20181;-89
2021/12/20 00:19:09;;;;;;;32.40;14.70;;;4.20;99.90;;;;;;5008224;28;20190;-86
2021/12/20 00:21:35;;;;;;;25.13;13.90;;;4.30;99.90;;;;;;5010175;28;20186;-88
2021/12/20 00:24:01;;;;;;;30.35;16.73;;;4.40;99.90;;;;;;5006831;28;20344;-89
2021/12/20 00:26:27;;;;;;;29.07;14.80;;;;;;;;;;5006876;28;20723;-89
2021/12/20 00:28:53;;;;;;;25.50;13.27;;;;;;;;;;5029262;28;20208;-90
2021/12/20 00:31:18;;;;;;;22.07;12.97;;;;;;;;;;5020574;28;20432;-86
2021/12/20 00:33:44;;;;;;;29.03;13.67;;;4.10;99.90;;;;;;5029911;28;20545;-89
2021/12/20 00:36:09;;;;;;;31.57;15.17;;;4.10;99.90;;;;;;5044985;28;20474;-89
2021/12/20 00:41:21;;;;;;;34.25;16.65;;;4.20;99.90;;;;;;5039125;28;20336;-87
2021/12/20 00:43:47;;;;;;;30.93;14.93;;;4.30;99.90;;;;;;5018177;28;20210;-87
2021/12/20 00:46:13;;;;;;;27.43;14.90;;;4.20;99.90;;;;;;5051202;28;20460;-87
2021/12/20 00:48:39;;;;;;;33.03;16.20;;;;;;;;;;5049133;28;20462;-88
2021/12/20 00:51:04;;;;;;;29.37;13.97;;;4.20;99.90;;;;;;5038145;28;20182;-89
2021/12/20 00:53:30;;;;;;;26.83;13.30;;;4.20;99.90;;;;;;5036816;28;20838;-89
2021/12/20 00:55:56;;;;;;;28.70;14.20;;;4.20;99.90;;;;;;5015721;28;20458;-89
2021/12/20 00:58:21;;;;;;;28.33;14.23;;;4.20;99.90;;;;;;5010335;28;20182;-89
2021/12/20 01:00:51;;;;;;;23.00;12.63;;;4.20;99.90;;;;;;5027582;28;20193;-89
2021/12/20 01:03:18;;;;;;;33.03;14.02;;;4.30;99.90;;;;;;5024534;28;20200;-88
2021/12/20 01:05:44;;;;;;;26.45;12.63;;;4.30;99.90;;;;;;5029584;28;20182;-89
2021/12/20 01:08:10;;;;;;;29.00;13.82;;;4.30;99.90;;;;;;4997354;28;20264;-89
2021/12/20 01:10:39;;;;;;;26.20;13.85;;;4.20;99.90;;;;;;5022249;28;20174;-89
2021/12/20 01:13:05;;;;;;;26.02;13.20;;;4.50;99.90;;;;;;5030265;28;20182;-88
2021/12/20 01:15:45;;;;;;;28.95;13.75;;;6.50;99.90;;;;;;5036333;28;20365;-88
2021/12/20 01:18:10;;;;;;;32.65;14.25;;;4.60;99.90;;;;;;5032584;28;20197;-89
2021/12/20 01:20:37;;;;;;;30.63;15.73;;;4.60;99.90;;;;;;5010412;28;20243;-88
2021/12/20 01:23:04;;;;;;;27.52;12.90;;;4.50;99.90;;;;;;5018532;28;22417;-89
2021/12/20 01:25:29;;;;;;;28.95;14.15;;;4.50;99.90;;;;;;5032802;28;20244;-88
2021/12/20 01:27:55;;;;;;;34.60;15.83;;;;;;;;;;5023096;28;21120;-88
2021/12/20 01:30:23;;;;;;;37.50;16.75;;;4.30;99.90;;;;;;5024299;28;20709;-89
2021/12/20 01:32:49;;;;;;;34.15;16.60;;;4.20;99.90;;;;;;5021596;28;20193;-88
2021/12/20 01:35:17;;;;;;;31.10;15.93;;;4.10;99.90;;;;;;5003498;28;20206;-89
2021/12/20 01:37:42;;;;;;;34.70;16.60;;;4.00;99.90;;;;;;4998801;28;20486;-88
2021/12/20 01:40:11;;;;;;;28.60;14.23;;;4.00;99.90;;;;;;5033692;28;20181;-89
2021/12/20 01:42:36;;;;;;;33.33;15.43;;;4.20;99.90;;;;;;5009181;28;20180;-87
2021/12/20 01:45:04;;;;;;;35.80;17.03;;;4.20;99.90;;;;;;5015381;28;20200;-88
2021/12/20 01:47:34;;;;;;;30.98;15.93;;;4.20;99.90;;;;;;5025711;28;20472;-88
2021/12/20 01:50:06;;;;;;;32.65;16.48;;;4.10;99.90;;;;;;5013646;28;20780;-89
2021/12/20 01:52:40;;;;;;;32.85;16.33;;;4.10;99.90;;;;;;5036498;28;20220;-88
2021/12/20 01:55:12;;;;;;;28.33;15.32;;;4.10;99.90;;;;;;5024759;28;20193;-87
2021/12/20 01:57:38;;;;;;;33.25;17.30;;;3.80;99.90;;;;;;5029079;28;20200;-88
2021/12/20 02:00:07;;;;;;;39.28;17.35;;;3.80;99.90;;;;;;5029943;28;20186;-89
2021/12/20 02:02:33;;;;;;;29.25;15.32;;;3.80;99.90;;;;;;5014602;28;20197;-88
2021/12/20 02:05:10;;;;;;;35.30;15.90;;;3.90;99.90;;;;;;5038836;28;20225;-88
2021/12/20 02:07:49;;;;;;;37.15;17.50;;;3.80;99.90;;;;;;5023040;28;20268;-87
2021/12/20 02:10:16;;;;;;;28.83;15.32;;;3.90;99.90;;;;;;5030066;28;20174;-87
2021/12/20 02:12:41;;;;;;;29.40;14.82;;;4.00;99.90;;;;;;5036635;28;20170;-87
2021/12/20 02:15:08;;;;;;;31.10;15.17;;;4.10;99.90;;;;;;5041231;28;20205;-86
2021/12/20 02:17:34;;;;;;;34.70;15.45;;;4.00;99.90;;;;;;5032137;28;20266;-87
2021/12/20 02:20:00;;;;;;;33.27;15.50;;;;;;;;;;5021780;28;20216;-87
2021/12/20 02:22:26;;;;;;;29.85;15.50;;;4.10;99.90;;;;;;5018978;28;20182;-87
2021/12/20 02:24:51;;;;;;;36.37;16.73;;;3.90;99.90;;;;;;5031271;28;20276;-87
2021/12/20 02:27:19;;;;;;;37.27;16.60;;;;;;;;;;5009143;28;20291;-86
2021/12/20 02:30:00;;;;;;;32.60;16.17;;;3.80;99.90;;;;;;5024545;28;20601;-87
2021/12/20 02:37:55;;;;;;;30.88;15.00;;;3.80;99.90;;;;;;5022200;28;20195;-87
2021/12/20 02:40:22;;;;;;;36.75;16.00;;;3.70;99.90;;;;;;5005922;28;20707;-88
2021/12/20 02:42:50;;;;;;;30.20;14.40;;;3.70;99.90;;;;;;5030895;28;20188;-86
2021/12/20 02:45:16;;;;;;;36.78;16.60;;;3.70;99.90;;;;;;5031184;28;20208;-86
2021/12/20 02:47:45;;;;;;;34.80;16.88;;;3.60;99.90;;;;;;5040758;28;20221;-88
2021/12/20 02:50:11;;;;;;;29.77;15.25;;;3.60;99.90;;;;;;5034816;28;20209;-87
2021/12/20 02:52:38;;;;;;;37.00;16.60;;;3.60;99.90;;;;;;5028822;28;20387;-87
2021/12/20 02:55:05;;;;;;;33.33;17.08;;;3.60;99.90;;;;;;5027731;28;20483;-87
2021/12/20 02:57:35;;;;;;;35.30;16.50;;;3.60;99.90;;;;;;5020028;28;20737;-88
2021/12/20 03:00:01;;;;;;;49.40;17.90;;;3.70;99.90;;;;;;5005527;28;20190;-87
2021/12/20 03:02:26;;;;;;;40.13;17.17;;;;;;;;;;5031954;28;20204;-87
2021/12/20 03:04:52;;;;;;;48.83;16.97;;;3.90;99.90;;;;;;5017102;28;20205;-87
2021/12/20 03:07:24;;;;;;;40.47;16.73;;;4.00;99.90;;;;;;5007376;28;20468;-86
2021/12/20 03:09:55;;;;;;;40.58;18.33;;;4.00;99.90;;;;;;5025499;28;20181;-86
2021/12/20 03:12:24;;;;;;;34.38;16.40;;;4.10;99.90;;;;;;5029388;28;20162;-88
2021/12/20 03:14:54;;;;;;;31.73;16.70;;;4.20;99.90;;;;;;5018930;28;20214;-86
2021/12/20 03:17:20;;;;;;;37.75;17.88;;;4.20;99.90;;;;;;5023837;28;20735;-86
2021/12/20 03:19:46;;;;;;;35.63;17.20;;;;;;;;;;5027609;28;20241;-87
2021/12/20 03:22:12;;;;;;;36.97;16.90;;;;;;;;;;5017787;28;20203;-87
2021/12/20 03:24:38;;;;;;;33.07;15.90;;;;;;;;;;5015416;28;20479;-86
2021/12/20 03:27:05;;;;;;;39.35;16.08;;;4.10;99.90;;;;;;5017931;28;20472;-87
2021/12/20 03:29:31;;;;;;;37.00;16.80;;;4.10;99.90;;;;;;5023244;28;20181;-88
2021/12/20 03:31:57;;;;;;;30.43;15.90;;;;;;;;;;5008337;28;20189;-88
2021/12/20 03:34:23;;;;;;;41.60;19.98;;;3.90;99.90;;;;;;5023617;28;20210;-86
2021/12/20 03:36:49;;;;;;;39.03;16.60;;;;;;;;;;5026530;28;20235;-86
2021/12/20 03:39:14;;;;;;;33.67;16.20;;;4.10;99.90;;;;;;5025508;28;20439;-88
2021/12/20 03:41:40;;;;;;;34.30;15.90;;;4.20;99.90;;;;;;5011970;28;20553;-87
2021/12/20 03:44:07;;;;;;;41.30;19.20;;;4.20;99.90;;;;;;5003128;28;20205;-87
2021/12/20 03:46:33;;;;;;;34.83;17.83;;;4.20;99.90;;;;;;5015859;28;20204;-87
2021/12/20 03:48:59;;;;;;;39.67;18.38;;;4.30;99.90;;;;;;5040784;28;20196;-87
2021/12/20 03:51:25;;;;;;;38.83;18.30;;;4.00;99.90;;;;;;5009086;28;21920;-87
2021/12/20 03:53:51;;;;;;;36.42;19.00;;;4.00;99.90;;;;;;5023219;28;20459;-88
2021/12/20 03:56:16;;;;;;;40.23;17.00;;;3.90;99.90;;;;;;5011549;28;20300;-86
2021/12/20 03:58:42;;;;;;;44.13;17.60;;;;;;;;;;5023133;28;20273;-88
2021/12/20 04:01:11;;;;;;;39.27;20.40;;;4.00;99.90;;;;;;5023808;28;20268;-87
2021/12/20 04:03:37;;;;;;;34.78;16.35;;;4.00;99.90;;;;;;5006757;28;20460;-87
2021/12/20 04:06:05;;;;;;;38.78;17.08;;;3.70;99.90;;;;;;5028885;28;20280;-88
2021/12/20 04:08:31;;;;;;;37.47;17.55;;;4.10;99.90;;;;;;5022915;28;20184;-87
2021/12/20 04:10:58;;;;;;;39.00;17.42;;;4.00;99.90;;;;;;5011982;28;20223;-87
2021/12/20 04:13:24;;;;;;;34.78;17.23;;;4.10;99.90;;;;;;5008819;28;20204;-86
2021/12/20 04:15:50;;;;;;;40.95;18.35;;;4.20;99.90;;;;;;5016744;28;20195;-88
2021/12/20 04:18:16;;;;;;;39.73;15.77;;;;;;;;;;5005266;28;20562;-87
2021/12/20 04:20:42;;;;;;;40.33;18.97;;;4.30;99.90;;;;;;5022286;28;20187;-86
2021/12/20 04:23:08;;;;;;;37.20;17.93;;;;;;;;;;5012153;28;20447;-87
2021/12/20 04:25:33;;;;;;;35.15;15.75;;;;;;;;;;5009381;28;20485;-87
2021/12/20 04:27:59;;;;;;;35.40;17.00;;;4.20;99.90;;;;;;5020522;28;20228;-86
2021/12/20 04:30:28;;;;;;;41.47;18.93;;;;;;;;;;5028926;28;20491;-86
2021/12/20 04:32:54;;;;;;;39.65;18.58;;;4.40;99.90;;;;;;5013382;28;20611;-87
2021/12/20 04:35:19;;;;;;;43.17;18.60;;;5.90;99.90;;;;;;5023887;28;20207;-87
2021/12/20 04:37:47;;;;;;;39.90;17.50;;;4.40;99.90;;;;;;5003325;28;20204;-86
2021/12/20 04:40:18;;;;;;;37.80;18.35;;;4.40;99.90;;;;;;5007199;28;20206;-87
2021/12/20 04:42:44;;;;;;;33.42;17.00;;;4.40;99.90;;;;;;5025835;28;20221;-87
2021/12/20 04:45:10;;;;;;;38.67;18.80;;;;;;;;;;5011629;28;20696;-86
2021/12/20 04:47:36;;;;;;;41.93;18.20;;;;;;;;;;5006180;28;20506;-86
2021/12/20 04:50:03;;;;;;;33.67;16.55;;;4.10;99.90;;;;;;5005525;28;20439;-87
2021/12/20 04:52:29;;;;;;;35.97;16.63;;;4.00;99.90;;;;;;5025260;28;20193;-87
2021/12/20 04:54:55;;;;;;;40.23;18.63;;;;;;;;;;5026720;28;20224;-87
2021/12/20 04:57:21;;;;;;;31.73;16.40;;;3.90;99.90;;;;;;5014406;28;20229;-87
2021/12/20 04:59:49;;;;;;;36.70;17.97;;;4.10;99.90;;;;;;5013448;28;20736;-87
2021/12/20 05:02:15;;;;;;;34.28;17.33;;;4.10;99.90;;;;;;5012494;28;20437;-87
2021/12/20 05:04:42;;;;;;;41.97;19.50;;;;;;;;;;5034895;28;20262;-87
2021/12/20 05:07:08;;;;;;;36.28;17.77;;;4.30;99.90;;;;;;5035032;28;20232;-87
2021/12/20 05:09:38;;;;;;;30.43;16.87;;;4.30;99.90;;;;;;5024584;28;20186;-87
2021/12/20 05:12:12;;;;;;;34.90;17.30;;;4.30;99.90;;;;;;5021097;28;20473;-87
2021/12/20 05:14:43;;;;;;;31.50;16.05;;;4.30;99.90;;;;;;5026380;28;20197;-87
2021/12/20 05:17:13;;;;;;;38.00;16.92;;;7.00;99.90;;;;;;5035205;28;20833;-87
2021/12/20 05:19:41;;;;;;;39.75;18.27;;;4.30;99.90;;;;;;5018889;28;20177;-87
2021/12/20 05:22:08;;;;;;;36.90;16.60;;;4.30;99.90;;;;;;5037990;28;20177;-87
2021/12/20 05:24:33;;;;;;;32.67;16.75;;;4.30;99.90;;;;;;5034992;28;20680;-87
2021/12/20 05:26:59;;;;;;;34.87;18.37;;;;;;;;;;5029800;28;20217;-86
2021/12/20 05:29:25;;;;;;;38.97;17.85;;;4.30;99.90;;;;;;5017859;28;20959;-87
2021/12/20 05:31:52;;;;;;;40.03;17.57;;;4.30;99.90;;;;;;5029143;28;20259;-88
2021/12/20 05:34:19;;;;;;;33.55;15.52;;;4.20;99.90;;;;;;5010294;28;20197;-86
2021/12/20 05:36:45;;;;;;;38.88;17.70;;;4.00;99.90;;;;;;5025885;28;20178;-88
2021/12/20 05:39:11;;;;;;;44.90;18.80;;;;;;;;;;5017893;28;20182;-87
2021/12/20 05:41:37;;;;;;;49.88;19.58;;;;;;;;;;5029245;28;20493;-87
2021/12/20 05:44:02;;;;;;;41.92;19.95;;;3.70;99.90;;;;;;5018217;28;20206;-86
2021/12/20 05:46:28;;;;;;;41.73;19.23;;;3.70;99.90;;;;;;5039484;28;20198;-86
2021/12/20 05:48:54;;;;;;;41.80;20.87;;;3.80;99.90;;;;;;5044026;28;20182;-86
2021/12/20 05:51:19;;;;;;;49.53;21.70;;;;;;;;;;5037063;28;20460;-87
2021/12/20 05:53:45;;;;;;;43.57;20.77;;;3.80;99.90;;;;;;5035340;28;20474;-85
2021/12/20 05:56:11;;;;;;;41.00;20.87;;;3.90;99.90;;;;;;5029445;28;21222;-87
2021/12/20 05:58:36;;;;;;;36.87;19.57;;;3.90;99.90;;;;;;5031087;28;20189;-86
2021/12/20 06:01:02;;;;;;;37.07;19.80;;;4.00;99.90;;;;;;5016514;28;20824;-86
2021/12/20 06:03:28;;;;;;;44.53;21.40;;;4.10;99.90;;;;;;5023979;28;20473;-86
2021/12/20 06:05:53;;;;;;;37.07;19.67;;;4.20;99.90;;;;;;5041381;28;20182;-85
2021/12/20 06:08:19;;;;;;;43.17;22.30;;;4.20;99.90;;;;;;5038850;28;20649;-86
2021/12/20 06:10:45;;;;;;;41.37;20.17;;;;;;;;;;5028314;28;20559;-86
2021/12/20 06:13:11;;;;;;;43.37;21.33;;;;;;;;;;5023555;28;20189;-86
2021/12/20 06:15:37;;;;;;;38.80;20.10;;;4.40;99.90;;;;;;5020100;28;21263;-86
2021/12/20 06:18:03;;;;;;;40.77;21.03;;;;;;;;;;5022389;28;20284;-87
2021/12/20 06:20:29;;;;;;;40.22;18.80;;;4.20;99.90;;;;;;5023174;28;20468;-86
2021/12/20 06:22:55;;;;;;;41.63;19.37;;;;;;;;;;5014143;28;20189;-85
2021/12/20 06:25:21;;;;;;;41.97;19.73;;;4.20;99.90;;;;;;5047471;28;20190;-85
2021/12/20 06:27:49;;;;;;;33.77;17.90;;;5.60;99.90;;;;;;5021118;28;20487;-86
2021/12/20 06:30:15;;;;;;;41.75;20.50;;;4.10;99.90;;;;;;5033056;28;20205;-85
2021/12/20 06:32:43;;;;;;;39.50;17.95;;;4.00;99.90;;;;;;5019914;28;20181;-86
2021/12/20 06:35:10;;;;;;;40.00;18.45;;;4.00;99.90;;;;;;5013214;28;20202;-86
2021/12/20 06:37:36;;;;;;;44.22;19.65;;;3.90;99.90;;;;;;5032051;28;20227;-86
2021/12/20 06:40:03;;;;;;;38.55;19.58;;;3.80;99.90;;;;;;5033290;28;20204;-86
2021/12/20 06:42:29;;;;;;;36.80;17.23;;;3.80;99.90;;;;;;5025402;28;20304;-86
2021/12/20 06:44:55;;;;;;;32.37;17.80;;;3.80;99.90;;;;;;5007508;28;20269;-86
2021/12/20 06:47:21;;;;;;;40.30;16.97;;;3.80;99.90;;;;;;5027094;28;20231;-86
2021/12/20 06:49:47;;;;;;;35.80;19.27;;;3.80;99.90;;;;;;5033552;28;20432;-87
2021/12/20 06:52:13;;;;;;;39.40;19.40;;;3.80;99.90;;;;;;5008884;28;20277;-86
2021/12/20 06:54:38;;;;;;;36.30;18.90;;;3.80;99.90;;;;;;5024997;28;20283;-87
2021/12/20 06:57:04;;;;;;;38.97;18.40;;;3.80;99.90;;;;;;5025277;28;20192;-85
2021/12/20 06:59:30;;;;;;;39.63;19.20;;;3.80;99.90;;;;;;5021113;28;20253;-86
2021/12/20 07:01:56;;;;;;;37.85;18.95;;;3.80;99.90;;;;;;5032829;28;20447;-86
2021/12/20 07:04:22;;;;;;;32.23;16.70;;;3.80;99.90;;;;;;5042878;28;20199;-87
2021/12/20 07:06:48;;;;;;;36.77;16.80;;;3.90;99.90;;;;;;5038076;28;20375;-89
2021/12/20 07:09:13;;;;;;;36.28;15.85;;;4.00;99.90;;;;;;5028001;28;20502;-87
2021/12/20 07:11:40;;;;;;;37.90;16.87;;;;;;;;;;5044478;28;20290;-86
2021/12/20 07:14:07;;;;;;;32.90;17.42;;;4.10;99.90;;;;;;5019000;28;20283;-87
2021/12/20 07:16:33;;;;;;;35.03;18.45;;;4.10;99.90;;;;;;5017211;28;20701;-88
2021/12/20 07:19:01;;;;;;;41.40;20.40;;;4.10;99.90;;;;;;5009780;28;20185;-87
2021/12/20 07:21:27;;;;;;;33.55;18.92;;;;;;;;;;5025468;28;20213;-87
2021/12/20 07:23:52;;;;;;;43.70;19.20;;;4.10;99.90;;;;;;5026485;28;20236;-86
2021/12/20 07:26:18;;;;;;;34.23;18.40;;;;;;;;;;5027785;28;20205;-87
2021/12/20 07:28:44;;;;;;;51.65;24.88;;;4.10;99.90;;;;;;5012683;28;20432;-87
2021/12/20 07:31:11;;;;;;;55.17;27.93;;;4.10;99.90;;;;;;5024676;28;20188;-87
2021/12/20 07:33:38;;;;;;;53.58;28.88;;;4.10;99.90;;;;;;5023298;28;20457;-88
2021/12/20 07:36:04;;;;;;;59.50;33.65;;;4.20;99.90;;;;;;5022659;28;20173;-87
2021/12/20 07:38:30;;;;;;;60.47;31.52;;;4.30;99.90;;;;;;5011132;28;20185;-87
2021/12/20 07:40:57;;;;;;;48.50;29.40;;;4.30;99.90;;;;;;5029273;28;20190;-87
2021/12/20 07:43:23;;;;;;;59.28;29.42;;;4.40;99.90;;;;;;5046529;28;20177;-87
2021/12/20 07:45:49;;;;;;;52.65;27.83;;;4.50;99.90;;;;;;5048664;28;20200;-88
2021/12/20 07:48:19;;;;;;;43.93;23.80;;;4.50;99.90;;;;;;5030849;28;20300;-87
2021/12/20 07:50:46;;;;;;;49.40;24.73;;;4.40;99.90;;;;;;5031800;28;20555;-86
2021/12/20 07:53:12;;;;;;;46.70;24.42;;;4.50;99.90;;;;;;5007955;28;20181;-87
2021/12/20 07:55:38;;;;;;;37.08;17.88;;;3.10;99.90;;;;;;5007236;28;20182;-87
2021/12/20 07:58:03;;;;;;;41.97;20.77;;;4.60;99.90;;;;;;5010660;28;20192;-87
2021/12/20 08:00:29;;;;;;;35.30;17.97;;;4.70;99.90;;;;;;5010390;28;20194;-88
2021/12/20 08:02:56;;;;;;;34.33;17.90;;;4.70;99.90;;;;;;5004811;28;20220;-88
2021/12/20 08:05:26;;;;;;;37.97;17.35;;;4.80;99.90;;;;;;5014959;28;20208;-87
2021/12/20 08:07:52;;;;;;;31.20;16.75;;;;;;;;;;5023380;28;20220;-87
2021/12/20 08:10:20;;;;;;;31.67;16.70;;;4.90;99.90;;;;;;5023834;28;20548;-87
2021/12/20 08:12:46;;;;;;;43.78;20.75;;;5.00;99.90;;;;;;5012808;28;20177;-87
2021/12/20 08:15:13;;;;;;;39.78;18.90;;;5.00;99.90;;;;;;5028078;28;20202;-86
2021/12/20 08:17:39;;;;;;;37.50;17.90;;;5.10;99.90;;;;;;5018185;28;20275;-87
2021/12/20 08:20:07;;;;;;;32.25;17.30;;;5.00;99.90;;;;;;5008650;28;20209;-86
2021/12/20 08:22:33;;;;;;;28.70;16.95;;;5.10;99.90;;;;;;5028054;28;20568;-87
2021/12/20 08:24:59;;;;;;;31.53;16.10;;;4.90;99.90;;;;;;5006703;28;20216;-87
2021/12/20 08:27:25;;;;;;;31.30;16.90;;;5.00;99.90;;;;;;5022261;28;20541;-88
2021/12/20 08:29:51;;;;;;;35.60;19.13;;;4.90;99.90;;;;;;5031094;28;20253;-87
2021/12/20 08:32:16;;;;;;;42.13;19.52;;;5.10;99.90;;;;;;5027009;28;20782;-88
2021/12/20 08:34:42;;;;;;;38.57;18.20;;;;;;;;;;5030920;28;20201;-87
2021/12/20 08:37:08;;;;;;;41.43;19.93;;;5.10;99.90;;;;;;5031830;28;20251;-88
2021/12/20 08:39:34;;;;;;;39.20;17.63;;;5.20;99.90;;;;;;5016210;28;20523;-86
2021/12/20 08:42:01;;;;;;;45.13;18.43;;;;;;;;;;5031268;28;20260;-87
2021/12/20 08:44:27;;;;;;;34.58;17.25;;;5.40;99.90;;;;;;5035513;28;20455;-88
2021/12/20 08:46:53;;;;;;;31.13;16.10;;;5.50;99.90;;;;;;5011951;28;21190;-88
2021/12/20 08:49:19;;;;;;;35.50;18.63;;;5.50;99.90;;;;;;5027024;28;20193;-87
2021/12/20 08:51:45;;;;;;;35.20;17.27;;;;;;;;;;5032240;28;20217;-85
2021/12/20 08:54:11;;;;;;;35.33;17.23;;;;;;;;;;5034784;28;20491;-87
2021/12/20 08:56:37;;;;;;;36.28;16.33;;;;;;;;;;5033932;28;20678;-86
2021/12/20 08:59:03;;;;;;;34.42;18.10;;;5.80;99.90;;;;;;5038917;28;20181;-87
2021/12/20 09:01:29;;;;;;;33.27;16.83;;;6.00;99.90;;;;;;5043854;28;20169;-87
2021/12/20 09:03:57;;;;;;;29.07;15.63;;;6.10;99.90;;;;;;5031915;28;20511;-88
2021/12/20 09:06:24;;;;;;;35.03;17.42;;;6.00;99.90;;;;;;5014471;28;20470;-86
2021/12/20 09:08:51;;;;;;;31.95;16.42;;;;;;;;;;5053081;28;20209;-87
2021/12/20 09:11:17;;;;;;;37.33;16.40;;;;;;;;;;5030094;28;20181;-87
2021/12/20 09:13:42;;;;;;;35.50;18.88;;;6.40;99.90;;;;;;5023546;28;20205;-87
2021/12/20 09:16:08;;;;;;;34.13;16.73;;;;;;;;;;5022246;28;20311;-87
2021/12/20 09:18:34;;;;;;;33.80;17.47;;;6.30;99.90;;;;;;5037556;28;20253;-85
2021/12/20 09:20:59;;;;;;;35.20;16.37;;;6.40;99.90;;;;;;5025062;28;20455;-87
2021/12/20 09:23:29;;;;;;;36.50;18.10;;;6.50;99.90;;;;;;5023000;28;20215;-87
2021/12/20 09:25:55;;;;;;;36.17;18.08;;;;;;;;;;5015069;28;20205;-87
2021/12/20 09:28:21;;;;;;;35.10;18.53;;;;;;;;;;5006124;28;20182;-88
2021/12/20 09:30:47;;;;;;;37.20;18.13;;;6.40;99.90;;;;;;5036917;28;20468;-87
2021/12/20 09:33:13;;;;;;;37.00;17.85;;;6.20;99.90;;;;;;5005486;28;20444;-87
2021/12/20 09:35:39;;;;;;;37.25;18.35;;;6.20;99.90;;;;;;5032252;28;20205;-88
2021/12/20 09:38:09;;;;;;;37.67;17.95;;;6.10;99.90;;;;;;5014747;28;20708;-87
2021/12/20 09:40:40;;;;;;;40.90;19.17;;;;;;;;;;5018663;28;20185;-87
2021/12/20 09:43:12;;;;;;;44.47;20.00;;;6.20;99.90;;;;;;5020424;28;20181;-87
2021/12/20 09:45:42;;;;;;;39.30;19.42;;;5.90;99.90;;;;;;5028541;28;20673;-87
2021/12/20 09:48:08;;;;;;;41.75;18.13;;;5.30;99.90;;;;;;5011154;28;20232;-88
2021/12/20 09:50:34;;;;;;;35.67;18.63;;;5.80;99.90;;;;;;5032764;28;20177;-88
2021/12/20 09:53:04;;;;;;;42.53;19.50;;;;;;;;;;5022507;28;20186;-87
2021/12/20 09:55:30;;;;;;;35.20;18.70;;;5.60;99.90;;;;;;5021467;28;20478;-87
2021/12/20 09:57:58;;;;;;;45.55;19.60;;;5.50;99.90;;;;;;5034994;28;20178;-88
2021/12/20 10:00:24;;;;;;;48.03;20.55;;;5.30;99.90;;;;;;5038911;28;20177;-87
2021/12/20 10:02:50;;;;;;;41.70;17.83;;;5.30;99.90;;;;;;5006091;28;20178;-87
2021/12/20 10:05:18;;;;;;;40.15;18.98;;;5.20;99.90;;;;;;5030780;28;20205;-88
2021/12/20 10:07:47;;;;;;;37.03;17.73;;;5.30;99.90;;;;;;5030433;28;20213;-87
2021/12/20 10:10:32;;;;;;;45.08;18.80;;;5.40;99.90;;;;;;5034482;28;20165;-88
2021/12/20 10:12:58;;;;;;;38.47;20.65;;;5.30;99.90;;;;;;5014469;28;20173;-87
2021/12/20 10:15:36;;;;;;;47.50;20.97;;;5.40;99.90;;;;;;5019339;28;20791;-87
2021/12/20 10:18:02;;;;;;;43.97;19.38;;;5.40;99.90;;;;;;5029486;28;20216;-86
2021/12/20 10:20:34;;;;;;;43.17;19.43;;;5.40;99.90;;;;;;5029271;28;20228;-87
2021/12/20 10:23:13;;;;;;;36.85;16.00;;;5.30;99.90;;;;;;5029550;28;20447;-87
2021/12/20 10:25:40;;;;;;;32.70;15.50;;;5.20;99.90;;;;;;5029627;28;21177;-87
2021/12/20 10:28:16;;;;;;;36.70;17.30;;;5.00;99.90;;;;;;5014140;28;20213;-87
2021/12/20 10:30:46;;;;;;;36.22;16.65;;;5.00;99.90;;;;;;5044376;28;20212;-87
2021/12/20 10:33:15;;;;;;;37.67;15.88;;;5.10;99.90;;;;;;5028509;28;20177;-88
2021/12/20 10:35:43;;;;;;;31.80;16.08;;;5.10;99.90;;;;;;5031474;28;20249;-88
2021/12/20 10:38:18;;;;;;;35.55;15.82;;;5.20;99.90;;;;;;5034195;28;20186;-88
2021/12/20 10:41:18;;;;;;;26.48;14.10;;;5.40;99.90;;;;;;5036921;28;20187;-87
2021/12/20 10:43:52;;;;;;;26.73;11.65;;;5.50;99.90;;;;;;5025906;28;20232;-86
2021/12/20 10:46:24;;;;;;;29.23;13.95;;;5.50;99.90;;;;;;5011420;28;20295;-86
2021/12/20 10:49:06;;;;;;;33.47;14.48;;;7.60;99.90;;;;;;5030248;28;20186;-88
2021/12/20 10:51:38;;;;;;;33.85;14.43;;;5.60;99.90;;;;;;5010131;28;20178;-86
2021/12/20 10:54:10;;;;;;;36.22;16.02;;;5.80;99.90;;;;;;5028445;28;20320;-86
2021/12/20 10:56:39;;;;;;;27.38;13.77;;;5.90;99.90;;;;;;5012525;28;20266;-87
2021/12/20 10:59:10;;;;;;;36.60;16.75;;;5.80;99.90;;;;;;5027357;28;20196;-87
2021/12/20 11:04:23;;;;;;;30.80;16.58;;;5.70;99.90;;;;;;5030634;28;20897;-87
2021/12/20 11:09:38;;;;;;;35.88;15.30;;;5.70;99.90;;;;;;5026899;28;20174;-87
2021/12/20 11:12:30;;;;;;;42.00;15.27;;;5.90;99.90;;;;;;5028779;28;20253;-87
2021/12/20 11:15:00;;;;;;;29.02;14.30;;;6.00;99.90;;;;;;5021510;28;20209;-86
2021/12/20 11:17:26;;;;;;;34.85;13.50;;;;;;;;;;5035088;28;20197;-88
2021/12/20 11:19:54;;;;;;;40.80;16.33;;;6.20;99.90;;;;;;5040158;28;20201;-87
2021/12/20 11:22:24;;;;;;;36.00;14.88;;;5.90;99.90;;;;;;5011976;28;20190;-87
2021/12/20 11:25:08;;;;;;;27.05;12.57;;;6.30;99.90;;;;;;5031212;28;20216;-85
2021/12/20 11:27:46;;;;;;;25.40;13.50;;;6.50;99.90;;;;;;5025392;28;20213;-87
2021/12/20 11:30:16;;;;;;;32.50;13.30;;;6.40;99.90;;;;;;5008503;28;20257;-86
2021/12/20 11:32:42;;;;;;;28.05;12.30;;;6.30;99.90;;;;;;5013918;28;20216;-86
2021/12/20 11:35:08;;;;;;;21.63;11.75;;;6.20;99.90;;;;;;5033221;28;20206;-86
2021/12/20 11:37:34;;;;;;;22.43;11.00;;;6.30;99.90;;;;;;5026071;28;20323;-86
2021/12/20 11:40:02;;;;;;;25.80;10.93;;;6.10;99.90;;;;;;5028686;28;20451;-86
2021/12/20 11:42:28;;;;;;;23.58;11.68;;;;;;;;;;5023089;28;21083;-87
2021/12/20 11:44:56;;;;;;;25.07;12.10;;;6.10;99.90;;;;;;5031575;28;20220;-86
2021/12/20 11:47:29;;;;;;;23.67;11.52;;;6.00;99.90;;;;;;5015484;28;20467;-87
2021/12/20 11:50:07;;;;;;;24.88;12.07;;;6.00;99.90;;;;;;5034886;28;20185;-87
2021/12/20 11:52:39;;;;;;;36.15;15.60;;;5.90;99.90;;;;;;5027711;28;20764;-86
2021/12/20 11:55:25;;;;;;;30.92;12.18;;;6.10;99.90;;;;;;5002743;28;20208;-86
2021/12/20 11:58:00;;;;;;;33.15;10.57;;;6.40;99.90;;;;;;5014294;28;20185;-88
2021/12/20 12:00:36;;;;;;;21.10;10.35;;;6.50;99.90;;;;;;5032550;28;20212;-87
2021/12/20 12:03:07;;;;;;;21.88;11.43;;;6.20;99.90;;;;;;5029953;28;20256;-87
2021/12/20 12:05:40;;;;;;;27.00;12.10;;;6.10;99.90;;;;;;5031869;28;20779;-86
2021/12/20 12:08:27;;;;;;;28.15;15.02;;;6.10;99.90;;;;;;5026336;28;20209;-86
2021/12/20 12:10:58;;;;;;;27.77;14.85;;;5.60;99.90;;;;;;5036929;28;20177;-86
2021/12/20 12:13:27;;;;;;;30.75;15.65;;;5.60;99.90;;;;;;5013828;28;20291;-87
2021/12/20 12:16:03;;;;;;;24.10;11.85;;;5.60;99.90;;;;;;5032288;28;20174;-87
2021/12/20 12:18:50;;;;;;;26.40;10.65;;;5.60;99.90;;;;;;5000318;28;22134;-86
2021/12/20 12:21:31;;;;;;;27.60;12.38;;;5.50;99.90;;;;;;5017213;28;20193;-87
2021/12/20 12:24:01;;;;;;;23.30;11.45;;;5.50;99.90;;;;;;4999086;28;20204;-87
2021/12/20 12:26:42;;;;;;;23.90;10.75;;;5.30;99.90;;;;;;5009292;28;20216;-86
2021/12/20 12:29:16;;;;;;;24.67;11.85;;;5.40;99.90;;;;;;4999622;28;20190;-88
2021/12/20 12:31:51;;;;;;;95.97;44.67;;;5.40;99.90;;;;;;5000516;28;20179;-86
2021/12/20 12:34:17;;;;;;;61.72;31.38;;;5.50;99.90;;;;;;5023163;28;20213;-85
2021/12/20 12:36:44;;;;;;;49.25;20.20;;;5.60;99.90;;;;;;5033505;28;20219;-87
2021/12/20 12:39:26;;;;;;;45.47;19.38;;;5.80;99.90;;;;;;5015744;28;20253;-87
2021/12/20 12:42:00;;;;;;;66.03;31.80;;;5.80;99.90;;;;;;5036216;28;20193;-86
2021/12/20 12:44:31;;;;;;;22.00;11.68;;;5.90;99.90;;;;;;5035617;28;20222;-87
2021/12/20 12:47:03;;;;;;;28.30;12.77;;;6.20;99.90;;;;;;5019091;28;20201;-86
2021/12/20 12:49:31;;;;;;;25.15;11.60;;;6.30;99.90;;;;;;5020410;28;20292;-87
2021/12/20 12:51:59;;;;;;;49.28;23.27;;;6.50;99.90;;;;;;5030822;28;20181;-87
2021/12/20 12:54:34;;;;;;;28.55;14.30;;;6.60;99.90;;;;;;5013643;28;20260;-87
2021/12/20 12:57:11;;;;;;;34.42;13.77;;;6.80;99.90;;;;;;5012992;28;20276;-86
2021/12/20 12:59:56;;;;;;;20.60;11.15;;;6.80;99.90;;;;;;5016780;28;20192;-87
2021/12/20 13:02:38;;;;;;;19.67;7.90;;;6.90;99.90;;;;;;5000954;28;20193;-88
2021/12/20 13:05:07;;;;;;;17.15;10.38;;;7.00;99.90;;;;;;5032113;28;20220;-87
2021/12/20 13:07:44;;;;;;;23.35;9.65;;;7.00;99.90;;;;;;5028046;28;20292;-87
2021/12/20 13:10:14;;;;;;;27.00;9.40;;;6.90;99.90;;;;;;5029986;28;20190;-87